createdAt,value
2023-04-30T00:01:22.405Z,6.88
2023-04-30T00:03:49.213Z,6.25
2023-04-30T00:06:16.101Z,5.97
2023-04-30T00:08:42.779Z,6.28
2023-04-30T00:11:09.489Z,6.20
2023-04-30T00:13:36.163Z,5.65
2023-04-30T00:16:02.986Z,6.10
2023-04-30T00:18:29.690Z,6.28
2023-04-30T00:20:56.381Z,6.13
2023-04-30T00:23:23.132Z,5.90
2023-04-30T00:25:49.736Z,6.68
2023-04-30T00:28:16.390Z,6.25
2023-04-30T00:30:43.093Z,6.22
2023-04-30T00:33:09.814Z,6.40
2023-04-30T00:35:36.596Z,6.20
2023-04-30T00:38:03.283Z,5.43
2023-04-30T00:40:30.470Z,6.15
2023-04-30T00:42:57.136Z,6.32
2023-04-30T00:45:23.927Z,5.93
2023-04-30T00:47:50.900Z,6.18
2023-04-30T00:50:17.889Z,6.00
2023-04-30T00:52:45.411Z,6.60
2023-04-30T00:55:12.670Z,6.20
2023-04-30T00:57:40.887Z,6.30
2023-04-30T01:00:11.147Z,6.63
2023-04-30T01:02:38.501Z,6.45
2023-04-30T01:05:06.245Z,6.53
2023-04-30T01:07:34.842Z,6.40
2023-04-30T01:10:02.036Z,6.10
2023-04-30T01:12:36.067Z,6.63
2023-04-30T01:15:20.543Z,7.03
2023-04-30T01:17:51.751Z,6.45
2023-04-30T01:20:19.923Z,6.90
2023-04-30T01:22:54.910Z,6.43
2023-04-30T01:25:41.474Z,6.70
2023-04-30T01:28:16.954Z,6.57
2023-04-30T01:30:44.850Z,7.05
2023-04-30T01:33:11.979Z,6.80
2023-04-30T01:36:10.975Z,6.95
2023-04-30T01:39:00.912Z,6.65
2023-04-30T01:41:31.603Z,7.10
2023-04-30T01:44:21.437Z,6.93
2023-04-30T01:46:58.742Z,6.78
2023-04-30T01:49:44.114Z,6.68
2023-04-30T01:52:20.699Z,6.80
2023-04-30T01:55:10.287Z,6.90
2023-04-30T01:57:41.410Z,6.90
2023-04-30T02:00:11.551Z,6.55
2023-04-30T02:02:38.297Z,6.80
2023-04-30T02:05:05.619Z,6.88
2023-04-30T02:07:50.095Z,6.55
2023-04-30T02:10:18.988Z,7.03
2023-04-30T02:12:45.847Z,7.30
2023-04-30T02:15:12.944Z,6.88
2023-04-30T02:17:39.770Z,6.95
2023-04-30T02:20:07.229Z,7.00
2023-04-30T02:22:33.926Z,7.70
2023-04-30T02:25:00.572Z,7.30
2023-04-30T02:27:30.127Z,6.88
2023-04-30T02:29:56.993Z,6.97
2023-04-30T02:32:23.839Z,7.35
2023-04-30T02:34:50.611Z,7.32
2023-04-30T02:37:17.358Z,7.70
2023-04-30T02:39:44.058Z,7.60
2023-04-30T02:42:11.147Z,7.10
2023-04-30T02:44:37.846Z,7.07
2023-04-30T02:47:04.619Z,7.40
2023-04-30T02:49:31.553Z,7.75
2023-04-30T02:51:58.199Z,7.10
2023-04-30T02:54:25.078Z,7.43
2023-04-30T02:56:51.884Z,8.00
2023-04-30T02:59:18.588Z,7.55
2023-04-30T03:01:45.337Z,7.88
2023-04-30T03:04:12.146Z,7.50
2023-04-30T03:06:39.093Z,8.13
2023-04-30T03:09:06.063Z,8.20
2023-04-30T03:11:32.787Z,7.88
2023-04-30T03:13:59.437Z,7.82
2023-04-30T03:16:26.218Z,8.00
2023-04-30T03:18:52.980Z,8.48
2023-04-30T03:21:19.683Z,7.93
2023-04-30T03:23:46.349Z,8.45
2023-04-30T03:26:13.045Z,8.13
2023-04-30T03:28:39.802Z,8.48
2023-04-30T03:31:06.609Z,8.52
2023-04-30T03:33:33.507Z,7.95
2023-04-30T03:36:00.190Z,7.93
2023-04-30T03:38:26.886Z,8.40
2023-04-30T03:40:53.521Z,8.57
2023-04-30T03:43:20.743Z,8.98
2023-04-30T03:45:47.517Z,8.63
2023-04-30T03:48:14.297Z,8.55
2023-04-30T03:50:41.189Z,8.32
2023-04-30T03:53:07.877Z,8.88
2023-04-30T03:55:34.637Z,8.48
2023-04-30T03:58:01.734Z,8.27
2023-04-30T04:00:28.516Z,8.60
2023-04-30T04:02:55.314Z,8.90
2023-04-30T04:05:22.089Z,9.20
2023-04-30T04:07:48.735Z,8.75
2023-04-30T04:10:15.552Z,8.63
2023-04-30T04:12:42.221Z,9.35
2023-04-30T04:15:09.505Z,8.50
2023-04-30T04:17:36.296Z,9.00
2023-04-30T04:20:06.000Z,8.30
2023-04-30T04:22:32.658Z,8.30
2023-04-30T04:24:59.461Z,8.88
2023-04-30T04:27:26.164Z,8.60
2023-04-30T04:29:53.069Z,8.80
2023-04-30T04:32:19.838Z,8.48
2023-04-30T04:34:47.269Z,8.47
2023-04-30T04:37:14.185Z,8.80
2023-04-30T04:39:40.961Z,8.93
2023-04-30T04:42:08.357Z,8.52
2023-04-30T04:44:35.027Z,9.00
2023-04-30T04:47:04.425Z,9.00
2023-04-30T04:49:31.081Z,8.23
2023-04-30T04:51:57.784Z,8.00
2023-04-30T04:54:24.563Z,8.63
2023-04-30T04:56:51.623Z,8.45
2023-04-30T04:59:18.948Z,8.60
2023-04-30T05:01:45.654Z,8.50
2023-04-30T05:04:14.939Z,8.95
2023-04-30T05:06:42.642Z,8.20
2023-04-30T05:09:09.828Z,8.70
2023-04-30T05:11:41.472Z,8.93
2023-04-30T05:14:08.256Z,8.07
2023-04-30T05:16:34.948Z,8.45
2023-04-30T05:19:01.701Z,9.85
2023-04-30T05:21:29.698Z,9.77
2023-04-30T05:23:56.481Z,8.60
2023-04-30T05:26:24.385Z,9.25
2023-04-30T05:28:52.376Z,8.60
2023-04-30T05:31:20.804Z,8.55
2023-04-30T05:33:48.053Z,8.32
2023-04-30T05:36:14.978Z,8.15
2023-04-30T05:38:41.972Z,7.97
2023-04-30T05:41:11.173Z,7.97
2023-04-30T05:43:37.921Z,8.32
2023-04-30T05:46:04.727Z,8.73
2023-04-30T05:48:31.437Z,8.50
2023-04-30T05:50:58.132Z,7.85
2023-04-30T05:53:24.856Z,8.30
2023-04-30T05:55:51.529Z,8.40
2023-04-30T05:58:18.177Z,8.27
2023-04-30T06:00:44.844Z,8.32
2023-04-30T06:03:11.488Z,8.55
2023-04-30T06:05:41.478Z,7.85
2023-04-30T06:08:08.476Z,7.70
2023-04-30T06:10:35.510Z,8.82
2023-04-30T06:13:02.281Z,8.20
2023-04-30T06:15:35.191Z,8.27
2023-04-30T06:18:01.848Z,8.27
2023-04-30T06:20:28.601Z,8.18
2023-04-30T06:22:55.408Z,8.00
2023-04-30T06:25:22.147Z,8.30
2023-04-30T06:27:48.949Z,8.50
2023-04-30T06:30:15.898Z,8.35
2023-04-30T06:32:42.679Z,8.15
2023-04-30T06:35:12.701Z,8.18
2023-04-30T06:37:39.424Z,7.93
2023-04-30T06:40:07.295Z,7.30
2023-04-30T06:42:35.205Z,8.02
2023-04-30T06:45:02.919Z,7.82
2023-04-30T06:47:34.754Z,7.68
2023-04-30T06:50:02.205Z,7.60
2023-04-30T06:52:29.923Z,7.40
2023-04-30T06:54:56.701Z,7.32
2023-04-30T06:57:24.616Z,7.60
2023-04-30T06:59:51.653Z,6.90
2023-04-30T07:02:21.230Z,6.97
2023-04-30T07:04:49.427Z,7.50
2023-04-30T07:07:16.189Z,7.10
2023-04-30T07:09:42.851Z,6.95
2023-04-30T07:12:11.159Z,6.90
2023-04-30T07:14:37.822Z,6.53
2023-04-30T07:17:04.615Z,6.65
2023-04-30T07:19:32.475Z,6.95
2023-04-30T07:21:59.180Z,6.93
2023-04-30T07:24:26.225Z,6.57
2023-04-30T07:26:52.994Z,6.68
2023-04-30T07:29:19.708Z,6.72
2023-04-30T07:31:48.758Z,6.35
2023-04-30T07:34:15.440Z,6.05
2023-04-30T07:36:42.105Z,6.32
2023-04-30T07:39:08.747Z,6.22
2023-04-30T07:41:35.498Z,5.63
2023-04-30T07:44:02.347Z,6.10
2023-04-30T07:46:29.054Z,5.63
2023-04-30T07:48:55.801Z,6.10
2023-04-30T07:51:22.611Z,5.75
2023-04-30T07:53:49.293Z,5.72
2023-04-30T07:56:15.936Z,6.00
2023-04-30T07:58:42.803Z,6.30
2023-04-30T08:01:09.533Z,5.78
2023-04-30T08:03:36.565Z,5.70
2023-04-30T08:06:05.284Z,5.80
2023-04-30T08:08:32.010Z,5.80
2023-04-30T08:10:58.657Z,5.72
2023-04-30T08:13:25.305Z,5.70
2023-04-30T08:15:51.971Z,5.15
2023-04-30T08:18:18.742Z,6.15
2023-04-30T08:20:45.487Z,5.70
2023-04-30T08:23:12.272Z,5.07
2023-04-30T08:25:39.027Z,5.05
2023-04-30T08:28:06.888Z,5.05
2023-04-30T08:30:33.548Z,4.87
2023-04-30T08:33:00.523Z,5.10
2023-04-30T08:35:29.575Z,4.53
2023-04-30T08:37:56.314Z,5.00
2023-04-30T08:40:33.744Z,4.90
2023-04-30T08:43:11.549Z,5.15
2023-04-30T08:45:39.197Z,4.03
2023-04-30T08:48:11.091Z,3.75
2023-04-30T08:50:38.024Z,3.72
2023-04-30T08:53:04.939Z,3.80
2023-04-30T08:55:34.576Z,3.37
2023-04-30T08:58:01.508Z,3.38
2023-04-30T09:00:28.451Z,3.53
2023-04-30T09:02:55.438Z,3.30
2023-04-30T09:05:22.116Z,3.13
2023-04-30T09:08:01.499Z,2.90
2023-04-30T09:10:32.671Z,2.85
2023-04-30T09:13:01.293Z,3.10
2023-04-30T09:15:28.694Z,2.78
2023-04-30T09:18:14.564Z,3.17
2023-04-30T09:20:58.896Z,2.95
2023-04-30T09:23:25.821Z,2.90
2023-04-30T09:25:52.520Z,3.00
2023-04-30T09:28:23.613Z,3.05
2023-04-30T09:30:51.061Z,2.60
2023-04-30T09:33:18.594Z,2.65
2023-04-30T09:35:45.534Z,2.60
2023-04-30T09:38:32.769Z,2.75
2023-04-30T09:41:01.050Z,2.60
2023-04-30T09:43:29.056Z,2.50
2023-04-30T09:45:58.957Z,2.50
2023-04-30T09:48:28.367Z,2.50
2023-04-30T09:50:55.671Z,2.38
2023-04-30T09:53:23.802Z,2.38
2023-04-30T09:55:51.780Z,5.07
2023-04-30T09:58:19.661Z,2.40
2023-04-30T10:00:49.431Z,2.25
2023-04-30T10:03:16.920Z,1.90
2023-04-30T10:05:47.587Z,1.92
2023-04-30T10:08:26.732Z,1.77
2023-04-30T10:11:01.115Z,2.00
2023-04-30T10:13:35.879Z,2.45
2023-04-30T10:16:11.800Z,2.50
2023-04-30T10:18:40.984Z,1.73
2023-04-30T10:21:12.683Z,2.10
2023-04-30T10:23:41.957Z,1.90
2023-04-30T10:26:11.152Z,2.20
2023-04-30T10:28:38.487Z,2.13
2023-04-30T10:31:07.111Z,2.50
2023-04-30T10:33:53.712Z,1.73
2023-04-30T10:36:48.513Z,1.85
2023-04-30T10:39:24.025Z,2.10
2023-04-30T10:41:50.949Z,1.98
2023-04-30T10:44:22.725Z,1.88
2023-04-30T10:46:49.532Z,2.33
2023-04-30T10:49:24.556Z,2.30
2023-04-30T10:51:52.064Z,1.85
2023-04-30T10:54:26.931Z,1.98
2023-04-30T10:56:56.524Z,1.98
2023-04-30T10:59:24.320Z,2.13
2023-04-30T11:01:59.978Z,2.22
2023-04-30T11:04:27.423Z,2.22
2023-04-30T11:06:54.124Z,1.88
2023-04-30T11:09:36.365Z,2.35
2023-04-30T11:12:04.798Z,1.90
2023-04-30T11:14:34.087Z,2.20
2023-04-30T11:17:02.377Z,2.25
2023-04-30T11:19:30.064Z,1.75
2023-04-30T11:22:04.150Z,2.22
2023-04-30T11:24:50.834Z,1.75
2023-04-30T11:27:23.393Z,1.83
2023-04-30T11:29:51.745Z,2.10
2023-04-30T11:32:21.339Z,1.63
2023-04-30T11:34:49.060Z,1.60
2023-04-30T11:37:35.703Z,1.65
2023-04-30T11:40:06.472Z,1.80
2023-04-30T11:42:36.533Z,1.70
2023-04-30T11:45:06.716Z,2.03
2023-04-30T11:47:51.718Z,2.00
2023-04-30T11:50:27.016Z,1.98
2023-04-30T11:52:54.454Z,2.28
2023-04-30T11:55:24.960Z,2.35
2023-04-30T11:57:54.529Z,1.85
2023-04-30T12:00:25.597Z,1.73
2023-04-30T12:02:52.522Z,1.80
2023-04-30T12:05:21.603Z,1.65
2023-04-30T12:07:50.171Z,1.70
2023-04-30T12:10:18.979Z,1.70
2023-04-30T12:12:46.929Z,1.80
2023-04-30T12:15:17.271Z,1.58
2023-04-30T12:17:45.950Z,1.52
2023-04-30T12:20:15.072Z,1.95
2023-04-30T12:22:43.717Z,2.30
2023-04-30T12:25:18.548Z,1.60
2023-04-30T12:27:47.678Z,1.77
2023-04-30T12:30:14.484Z,1.70
2023-04-30T12:32:46.068Z,1.70
2023-04-30T12:35:16.154Z,1.90
2023-04-30T12:37:46.159Z,1.80
2023-04-30T12:40:14.096Z,1.42
2023-04-30T12:42:43.667Z,1.20
2023-04-30T12:45:11.636Z,1.25
2023-04-30T12:47:40.951Z,1.40
2023-04-30T12:50:10.993Z,1.63
2023-04-30T12:52:38.032Z,1.35
2023-04-30T12:55:21.493Z,1.30
2023-04-30T12:58:08.555Z,1.23
2023-04-30T13:00:51.426Z,1.55
2023-04-30T13:03:21.724Z,1.33
2023-04-30T13:05:51.703Z,1.40
2023-04-30T13:08:20.619Z,1.67
2023-04-30T13:10:48.537Z,1.60
2023-04-30T13:13:17.492Z,1.60
2023-04-30T13:15:44.590Z,1.40
2023-04-30T13:18:12.069Z,1.40
2023-04-30T13:20:39.193Z,1.17
2023-04-30T13:23:06.643Z,1.48
2023-04-30T13:25:34.699Z,1.33
2023-04-30T13:28:01.358Z,1.25
2023-04-30T13:30:28.658Z,1.40
2023-04-30T13:32:55.536Z,1.42
2023-04-30T13:35:22.468Z,1.60
2023-04-30T13:37:49.622Z,1.63
2023-04-30T13:40:16.361Z,1.40
2023-04-30T13:42:43.158Z,1.55
2023-04-30T13:45:10.253Z,1.67
2023-04-30T13:47:37.156Z,1.50
2023-04-30T13:50:05.052Z,1.30
2023-04-30T13:52:31.973Z,1.40
2023-04-30T13:54:58.799Z,1.70
2023-04-30T13:57:25.555Z,1.30
2023-04-30T13:59:52.806Z,1.40
2023-04-30T14:02:19.686Z,1.45
2023-04-30T14:04:58.158Z,1.40
2023-04-30T14:07:29.369Z,2.05
2023-04-30T14:09:56.359Z,1.45
2023-04-30T14:12:24.496Z,1.77
2023-04-30T14:14:51.252Z,1.80
2023-04-30T14:17:17.968Z,1.60
2023-04-30T14:19:45.231Z,1.50
2023-04-30T14:22:15.073Z,1.90
2023-04-30T14:24:42.144Z,2.13
2023-04-30T14:27:09.290Z,2.05
2023-04-30T14:29:36.367Z,1.90
2023-04-30T14:32:04.115Z,1.70
2023-04-30T14:34:31.770Z,1.40
2023-04-30T14:37:01.588Z,1.40
2023-04-30T14:39:28.780Z,1.53
2023-04-30T14:41:55.916Z,1.60
2023-04-30T14:44:25.551Z,1.80
2023-04-30T14:46:54.650Z,1.80
2023-04-30T14:49:21.782Z,1.92
2023-04-30T14:51:48.914Z,1.70
2023-04-30T14:54:16.377Z,1.70
2023-04-30T14:56:44.264Z,1.75
2023-04-30T14:59:11.899Z,1.40
2023-04-30T15:01:38.682Z,1.60
2023-04-30T15:04:06.018Z,1.30
2023-04-30T15:06:33.213Z,1.10
2023-04-30T15:09:00.162Z,1.52
2023-04-30T15:11:26.911Z,1.60
2023-04-30T15:13:55.182Z,1.90
2023-04-30T15:16:22.258Z,1.40
2023-04-30T15:18:49.031Z,1.30
2023-04-30T15:21:15.728Z,1.20
2023-04-30T15:23:42.442Z,1.50
2023-04-30T15:26:10.143Z,1.40
2023-04-30T15:28:36.984Z,2.00
2023-04-30T15:31:04.499Z,2.15
2023-04-30T15:33:39.278Z,2.15
2023-04-30T15:36:06.297Z,1.75
2023-04-30T15:38:33.116Z,1.40
2023-04-30T15:41:01.851Z,1.52
2023-04-30T15:43:29.864Z,1.33
2023-04-30T15:45:57.097Z,1.60
2023-04-30T15:48:23.882Z,1.40
2023-04-30T15:50:50.566Z,1.70
2023-04-30T15:53:17.329Z,1.90
2023-04-30T15:55:46.460Z,1.50
2023-04-30T15:58:13.235Z,1.70
2023-04-30T16:00:40.055Z,1.77
2023-04-30T16:03:07.197Z,1.50
2023-04-30T16:05:38.631Z,1.55
2023-04-30T16:08:07.871Z,1.50
2023-04-30T16:10:34.574Z,1.60
2023-04-30T16:13:01.182Z,1.73
2023-04-30T16:15:32.153Z,1.90
2023-04-30T16:17:58.913Z,1.80
2023-04-30T16:20:27.309Z,1.65
2023-04-30T16:22:55.068Z,1.60
2023-04-30T16:25:22.516Z,1.75
2023-04-30T16:27:49.751Z,2.25
2023-04-30T16:30:16.501Z,2.25
2023-04-30T16:32:44.220Z,1.88
2023-04-30T16:35:10.971Z,1.98
2023-04-30T16:37:37.638Z,2.05
2023-04-30T16:40:06.294Z,2.15
2023-04-30T16:42:33.787Z,1.88
2023-04-30T16:45:01.497Z,2.05
2023-04-30T16:47:31.260Z,1.65
2023-04-30T16:49:58.645Z,1.70
2023-04-30T16:52:25.682Z,1.73
2023-04-30T16:54:52.384Z,2.00
2023-04-30T16:57:19.122Z,1.90
2023-04-30T16:59:46.792Z,1.60
2023-04-30T17:02:13.524Z,1.50
2023-04-30T17:04:40.267Z,1.80
2023-04-30T17:07:07.339Z,1.52
2023-04-30T17:09:34.162Z,1.60
2023-04-30T17:12:00.662Z,1.60
2023-04-30T17:14:27.480Z,1.70
2023-04-30T17:16:54.277Z,1.73
2023-04-30T17:19:20.943Z,1.50
2023-04-30T17:21:47.572Z,1.70
2023-04-30T17:24:14.286Z,1.37
2023-04-30T17:26:41.416Z,1.50
2023-04-30T17:29:08.110Z,1.60
2023-04-30T17:31:35.423Z,1.60
2023-04-30T17:34:02.375Z,1.50
2023-04-30T17:36:30.192Z,1.70
2023-04-30T17:38:57.030Z,1.40
2023-04-30T17:41:23.953Z,1.57
2023-04-30T17:43:51.684Z,1.55
2023-04-30T17:46:18.573Z,1.60
2023-04-30T17:48:45.241Z,1.50
2023-04-30T17:51:12.055Z,1.48
2023-04-30T17:53:38.739Z,1.60
2023-04-30T17:56:05.831Z,1.70
2023-04-30T17:58:32.861Z,2.55
2023-04-30T18:01:01.518Z,1.90
2023-04-30T18:03:28.652Z,2.30
2023-04-30T18:05:55.562Z,1.50
2023-04-30T18:08:22.417Z,2.35
2023-04-30T18:10:49.397Z,2.55
2023-04-30T18:13:16.204Z,1.70
2023-04-30T18:15:42.893Z,1.63
2023-04-30T18:18:09.951Z,1.70
2023-04-30T18:20:37.024Z,1.77
2023-04-30T18:23:05.522Z,1.80
2023-04-30T18:25:34.273Z,1.73
2023-04-30T18:28:01.328Z,2.08
2023-04-30T18:30:28.103Z,2.25
2023-04-30T18:32:54.863Z,1.80
2023-04-30T18:35:22.170Z,1.90
2023-04-30T18:37:49.628Z,1.70
2023-04-30T18:40:16.477Z,1.90
2023-04-30T18:42:43.219Z,1.65
2023-04-30T18:45:11.356Z,1.77
2023-04-30T18:47:38.245Z,2.00
2023-04-30T18:50:07.033Z,1.50
2023-04-30T18:52:34.038Z,1.70
2023-04-30T18:55:00.855Z,1.50
2023-04-30T18:57:28.306Z,1.50
2023-04-30T18:59:55.394Z,1.83
2023-04-30T19:02:22.274Z,2.00
2023-04-30T19:04:50.295Z,2.10
2023-04-30T19:07:17.048Z,1.80
2023-04-30T19:09:45.195Z,1.80
2023-04-30T19:12:12.413Z,1.90
2023-04-30T19:14:39.120Z,1.80
2023-04-30T19:17:05.920Z,1.70
2023-04-30T19:19:32.882Z,1.80
2023-04-30T19:21:59.554Z,2.10
2023-04-30T19:24:26.249Z,1.95
2023-04-30T19:26:52.961Z,1.83
2023-04-30T19:29:19.621Z,1.88
2023-04-30T19:31:46.518Z,1.80
2023-04-30T19:34:13.883Z,1.73
2023-04-30T19:36:43.847Z,1.90
2023-04-30T19:39:11.813Z,1.75
2023-04-30T19:41:39.176Z,1.52
2023-04-30T19:44:06.304Z,1.70
2023-04-30T19:46:32.992Z,1.85
2023-04-30T19:48:59.668Z,3.17
2023-04-30T19:51:26.389Z,2.80
2023-04-30T19:53:53.130Z,2.50
2023-04-30T19:56:19.990Z,2.05
2023-04-30T19:58:47.487Z,2.20
2023-04-30T20:01:14.680Z,2.10
2023-04-30T20:03:42.491Z,2.50
2023-04-30T20:06:09.888Z,3.70
2023-04-30T20:08:37.425Z,6.05
2023-04-30T20:11:04.217Z,3.42
2023-04-30T20:13:31.010Z,2.80
2023-04-30T20:15:58.120Z,2.80
2023-04-30T20:18:24.931Z,2.90
2023-04-30T20:20:52.222Z,2.50
2023-04-30T20:23:20.240Z,3.83
2023-04-30T20:25:46.971Z,4.30
2023-04-30T20:28:14.784Z,3.83
2023-04-30T20:30:42.810Z,3.37
2023-04-30T20:33:10.781Z,2.95
2023-04-30T20:35:40.671Z,3.03
2023-04-30T20:38:08.065Z,3.50
2023-04-30T20:40:34.881Z,3.33
2023-04-30T20:43:01.644Z,3.30
2023-04-30T20:45:28.536Z,3.37
2023-04-30T20:47:55.658Z,8.48
2023-04-30T20:50:22.452Z,5.20
2023-04-30T20:52:49.185Z,3.83
2023-04-30T20:55:16.053Z,3.22
2023-04-30T20:57:42.832Z,3.45
2023-04-30T21:00:10.042Z,2.80
2023-04-30T21:02:36.873Z,2.97
2023-04-30T21:05:05.964Z,3.13
2023-04-30T21:07:34.417Z,3.08
2023-04-30T21:10:01.977Z,3.28
2023-04-30T21:12:29.609Z,3.22
2023-04-30T21:14:57.136Z,3.17
2023-04-30T21:17:23.913Z,3.78
2023-04-30T21:19:50.569Z,3.22
2023-04-30T21:22:17.341Z,3.80
2023-04-30T21:24:44.406Z,4.40
2023-04-30T21:27:11.306Z,5.53
2023-04-30T21:29:41.645Z,5.63
2023-04-30T21:32:08.381Z,4.18
2023-04-30T21:34:35.067Z,3.47
2023-04-30T21:37:01.835Z,3.33
2023-04-30T21:39:30.577Z,4.30
2023-04-30T21:41:57.837Z,4.50
2023-04-30T21:44:25.268Z,4.90
2023-04-30T21:46:52.190Z,4.63
2023-04-30T21:49:19.026Z,4.72
2023-04-30T21:51:45.684Z,4.75
2023-04-30T21:54:12.629Z,5.30
2023-04-30T21:56:40.148Z,5.47
2023-04-30T21:59:07.125Z,5.70
2023-04-30T22:01:33.851Z,6.35
2023-04-30T22:04:00.676Z,6.35
2023-04-30T22:06:28.390Z,6.90
2023-04-30T22:08:55.315Z,5.75
2023-04-30T22:11:22.110Z,5.75
2023-04-30T22:13:50.344Z,5.28
2023-04-30T22:16:17.121Z,5.60
2023-04-30T22:18:44.073Z,4.78
2023-04-30T22:21:10.682Z,4.05
2023-04-30T22:23:37.374Z,3.72
2023-04-30T22:26:09.556Z,3.90
2023-04-30T22:28:37.407Z,4.10
2023-04-30T22:31:04.733Z,4.20
2023-04-30T22:33:36.146Z,4.13
2023-04-30T22:36:06.417Z,4.15
2023-04-30T22:38:33.687Z,4.40
2023-04-30T22:41:00.707Z,3.90
2023-04-30T22:43:30.325Z,4.07
2023-04-30T22:45:58.717Z,4.03
2023-04-30T22:48:26.879Z,4.00
2023-04-30T22:50:53.922Z,3.80
2023-04-30T22:53:20.849Z,3.83
2023-04-30T22:55:47.914Z,3.67
2023-04-30T22:58:14.667Z,3.67
2023-04-30T23:00:41.687Z,3.80
2023-04-30T23:03:08.529Z,4.00
2023-04-30T23:05:35.432Z,4.00
2023-04-30T23:08:02.216Z,3.70
2023-04-30T23:10:28.898Z,4.22
2023-04-30T23:12:56.548Z,3.90
2023-04-30T23:15:23.424Z,3.95
2023-04-30T23:17:51.466Z,3.63
2023-04-30T23:20:18.716Z,3.55
2023-04-30T23:22:45.564Z,3.75
2023-04-30T23:25:12.686Z,3.42
2023-04-30T23:27:39.433Z,3.45
2023-04-30T23:30:06.939Z,3.63
2023-04-30T23:32:33.615Z,3.58
2023-04-30T23:35:03.320Z,3.50
2023-04-30T23:37:32.080Z,3.40
2023-04-30T23:39:59.595Z,3.75
2023-04-30T23:42:26.505Z,3.30
2023-04-30T23:44:53.306Z,3.65
2023-04-30T23:47:19.954Z,3.53
2023-04-30T23:49:46.730Z,3.60
2023-04-30T23:52:14.359Z,3.63
2023-04-30T23:54:41.131Z,3.20
2023-04-30T23:57:07.884Z,4.15
2023-04-30T23:59:34.587Z,4.13
